Fort Drum, NY

9:30 PM EST on January 22, 2018 (GMT -0500)
Wheeler-Sack Army Air Field

Weather History for KGTB - October, 2013

Change the Weather History Date:

Thursday, October 31, 2013

  Actual Average Record
Temperature  
Mean Temperature 49 °F -  
Max Temperature 59 °F 48 °F 71 °F (2003)
Min Temperature 39 °F 32 °F 19 °F (2002)
Degree Days  
Heating Degree Days 16    
Moisture  
Dew Point 53 °F    
Average Humidity 95    
Maximum Humidity 100    
Minimum Humidity 87    
Precipitation  
Precipitation 0.60 in - - ()
Sea Level Pressure  
Sea Level Pressure 29.76 in    
Wind  
Wind Speed 16 mph (South)    
Max Wind Speed 23 mph    
Max Gust Speed 31 mph    
Visibility 9 miles    
Events Rain    
Averages and records for this station are not official NWS values.
T = Trace of Precipitation, MM = Missing Value Source: NWS Daily Summary

Daily Weather History Graph

Daily Weather History Graph

Search for Another Location

Airport or City:

Trip Planner

Search our weather history database for the weather conditions in past years. The results will help you decide how hot, cold, wet, or windy it might be!

Date:

Astronomy

Oct. 31, 2013 Rise Set
Actual Time 7:38 AM EDT 5:53 PM EDT
Civil Twilight 7:08 AM EDT 6:23 PM EDT
Nautical Twilight 6:34 AM EDT 6:57 PM EDT
Astronomical Twilight 6:00 AM EDT 7:31 PM EDT
Moon 4:19 AM EDT (10/31) 4:15 PM EDT (10/31)
Length of Visible Light 11h 15m
Length of Day
10h 15m
Waning Crescent, 10% of the Moon is Illuminated
Oct 31
Waning Crescent
Nov 3
New
Nov 10
First Quarter
Nov 17
Full
Nov 25
Last Quarter

Hourly Weather History & Observations

Time (EDT) Temp. Windchill Dew Point Humidity Pressure Visibility Wind Dir Wind Speed Gust Speed Precip Events Conditions
12:58 AM 39.9 °F 32.9 °F 39.2 °F 97% 30.13 in 10.0 mi SSE 11.5 mph - N/A   Scattered Clouds
1:58 AM 40.3 °F 33.4 °F 38.7 °F 94% 30.11 in 10.0 mi SE 11.5 mph - N/A   Clear
2:58 AM 41.2 °F 34.5 °F 38.1 °F 89% 30.08 in 10.0 mi SSE 11.5 mph - N/A   Clear
3:58 AM 41.2 °F 33.4 °F 37.8 °F 88% 30.05 in 10.0 mi SE 15.0 mph - N/A   Clear
4:58 AM 41.9 °F 34.3 °F 38.5 °F 88% 30.02 in 10.0 mi SE 15.0 mph - N/A   Partly Cloudy
5:58 AM 43.2 °F 36.6 °F 39.6 °F 87% 30.01 in 10.0 mi SSE 12.7 mph - N/A   Mostly Cloudy
6:58 AM 44.4 °F 37.9 °F 40.8 °F 87% 29.99 in 10.0 mi SSE 13.8 mph - N/A   Partly Cloudy
7:58 AM 45.3 °F 38.7 °F 42.1 °F 88% 29.96 in 10.0 mi SSE 15.0 mph - N/A   Mostly Cloudy
8:05 AM 46.4 °F 39.5 °F 42.8 °F 87% 29.95 in 10.0 mi SSE 17.3 mph - N/A   Light Drizzle
8:28 AM 44.6 °F 37.4 °F 42.8 °F 93% 29.95 in 9.0 mi SSE 16.1 mph - N/A   Overcast
8:58 AM 44.8 °F 38.3 °F 44.2 °F 98% 29.96 in 6.0 mi SSE 13.8 mph - 0.01 in   Overcast
8:59 AM 44.6 °F 37.4 °F 44.6 °F 100% 29.94 in 6.0 mi SSE 16.1 mph - N/A Rain Light Rain
9:16 AM 44.6 °F 37.4 °F 44.6 °F 100% 29.92 in 6.0 mi SSE 16.1 mph - N/A   Overcast
9:17 AM 44.6 °F 37.4 °F 44.6 °F 100% 29.92 in 7.0 mi SSE 16.1 mph - N/A Rain Light Rain
9:48 AM 46.4 °F 39.8 °F 44.6 °F 93% 29.91 in 6.0 mi SE 16.1 mph - N/A   Overcast
9:58 AM 45.7 °F 38.8 °F 45.5 °F 99% 29.93 in 5.0 mi SSE 16.1 mph - 0.04 in   Overcast
9:59 AM 46.4 °F 39.8 °F 44.6 °F 93% 29.91 in 5.0 mi SSE 16.1 mph - N/A Rain Light Rain
10:29 AM 46.4 °F 39.8 °F 46.4 °F 100% 29.87 in 3.0 mi SE 16.1 mph - N/A Rain Rain
10:58 AM 47.3 °F - 47.3 °F 100% 29.86 in 5.0 mi SSE 13.8 mph - 0.11 in Rain Light Rain
11:58 AM 49.5 °F - 49.5 °F 100% 29.83 in 4.0 mi SSE 12.7 mph - 0.14 in Rain Rain
12:28 PM 55.4 °F - 55.4 °F 100% 29.81 in 9.0 mi SSW 21.9 mph 28.8 mph N/A Rain Light Rain
12:33 PM 55.4 °F - 55.4 °F 100% 29.81 in 10.0 mi SSW 15.0 mph 28.8 mph N/A Rain Light Rain
12:58 PM 56.8 °F - 56.8 °F 100% 29.80 in 10.0 mi South 16.1 mph 24.2 mph 0.09 in Rain Light Rain
1:13 PM 57.2 °F - 57.2 °F 100% 29.78 in 10.0 mi South 19.6 mph 27.6 mph N/A Rain Light Rain
1:25 PM 57.2 °F - 57.2 °F 100% 29.77 in 9.0 mi South 20.7 mph 28.8 mph N/A   Mostly Cloudy
1:35 PM 57.2 °F - 57.2 °F 100% 29.77 in 10.0 mi SSW 16.1 mph 27.6 mph N/A   Mostly Cloudy
1:40 PM 57.2 °F - 57.2 °F 100% 29.77 in 10.0 mi SSW 17.3 mph - N/A   Mostly Cloudy
1:50 PM 57.2 °F - 57.2 °F 100% 29.76 in 9.0 mi South 18.4 mph 26.5 mph N/A Rain Rain
1:58 PM 57.2 °F - 57.2 °F 100% 29.76 in 9.0 mi South 19.6 mph - 0.04 in Rain Light Rain
2:18 PM 57.2 °F - 57.2 °F 100% 29.75 in 10.0 mi South 18.4 mph 24.2 mph N/A Rain Light Rain
2:23 PM 57.2 °F - 57.2 °F 100% 29.74 in 10.0 mi South 17.3 mph - N/A Rain Light Rain
2:58 PM 57.7 °F - 57.2 °F 98% 29.75 in 10.0 mi South 20.7 mph - 0.01 in Rain Light Rain
3:21 PM 59.0 °F - 57.2 °F 94% 29.72 in 10.0 mi South 19.6 mph 26.5 mph N/A   Clear
3:44 PM 59.0 °F - 57.2 °F 94% 29.71 in 10.0 mi South 18.4 mph 24.2 mph N/A   Light Drizzle
3:58 PM 59.0 °F - 57.0 °F 93% 29.73 in 10.0 mi South 18.4 mph - 0.00 in Rain Light Rain
4:10 PM 59.0 °F - 57.2 °F 94% 29.70 in 10.0 mi South 19.6 mph 25.3 mph N/A   Clear
4:16 PM 59.0 °F - 57.2 °F 94% 29.70 in 10.0 mi South 16.1 mph 25.3 mph N/A   Light Drizzle
4:39 PM 59.0 °F - 57.2 °F 94% 29.71 in 10.0 mi South 17.3 mph - N/A   Scattered Clouds
4:51 PM 59.0 °F - 57.2 °F 94% 29.71 in 10.0 mi South 18.4 mph - N/A Rain Light Rain
4:58 PM 59.4 °F - 56.7 °F 91% 29.71 in 10.0 mi South 18.4 mph 28.8 mph 0.00 in   Light Drizzle
5:58 PM 58.8 °F - 57.7 °F 96% 29.70 in 10.0 mi South 17.3 mph - 0.03 in Rain Light Rain
6:18 PM 59.0 °F - 57.2 °F 94% 29.68 in 10.0 mi South 17.3 mph - N/A Rain Light Rain
6:19 PM 59.0 °F - 57.2 °F 94% 29.68 in 10.0 mi South 17.3 mph - N/A   Mostly Cloudy
6:24 PM 59.0 °F - 57.2 °F 94% 29.67 in 10.0 mi South 16.1 mph - N/A   Mostly Cloudy
6:25 PM 59.0 °F - 57.2 °F 94% 29.66 in 10.0 mi South 17.3 mph - N/A Rain Light Rain
6:30 PM 59.0 °F - 57.2 °F 94% 29.66 in 10.0 mi South 19.6 mph - N/A Rain Light Rain
6:37 PM 59.0 °F - 57.2 °F 94% 29.66 in 10.0 mi South 16.1 mph - N/A   Mostly Cloudy
6:58 PM 59.4 °F - 57.4 °F 93% 29.66 in 10.0 mi South 19.6 mph - 0.03 in   Scattered Clouds
7:28 PM 59.0 °F - 57.2 °F 94% 29.64 in 10.0 mi South 16.1 mph - N/A   Light Drizzle
7:58 PM 59.5 °F - 57.2 °F 92% 29.64 in 10.0 mi South 18.4 mph - 0.00 in Rain Light Rain
8:34 PM 59.0 °F - 57.2 °F 94% 29.62 in 10.0 mi South 18.4 mph - N/A   Mostly Cloudy
8:38 PM 59.0 °F - 57.2 °F 94% 29.62 in 10.0 mi SSW 15.0 mph - N/A Rain Light Rain
8:58 PM 59.2 °F - 58.1 °F 96% 29.62 in 10.0 mi SSW 16.1 mph 21.9 mph 0.03 in Rain Light Rain
9:20 PM 59.0 °F - 57.2 °F 94% 29.59 in 10.0 mi SSW 15.0 mph 24.2 mph N/A   Overcast
9:27 PM 59.0 °F - 57.2 °F 94% 29.59 in 10.0 mi South 15.0 mph 24.2 mph N/A Rain Light Rain
9:39 PM 59.0 °F - 57.2 °F 94% 29.58 in 10.0 mi South 16.1 mph - N/A   Mostly Cloudy
9:49 PM 59.0 °F - 57.2 °F 94% 29.57 in 10.0 mi South 12.7 mph - N/A Rain Light Rain
9:52 PM 59.0 °F - 57.2 °F 94% 29.57 in 10.0 mi South 15.0 mph - N/A   Mostly Cloudy
9:54 PM 59.0 °F - 57.2 °F 94% 29.57 in 10.0 mi South 15.0 mph - N/A Rain Light Rain
9:58 PM 58.3 °F - 57.9 °F 99% 29.57 in 10.0 mi South 17.3 mph - 0.03 in Rain Light Rain
10:58 PM 59.0 °F - 57.2 °F 94% 29.52 in 10.0 mi South 16.1 mph 24.2 mph 0.01 in Rain Light Rain
11:33 PM 59.0 °F - 57.2 °F 94% 29.47 in 10.0 mi South 19.6 mph 28.8 mph N/A Rain Light Rain
11:38 PM 59.0 °F - 57.2 °F 94% 29.47 in 10.0 mi South 18.4 mph 26.5 mph N/A Rain Light Rain
11:58 PM 59.7 °F - 57.9 °F 94% 29.45 in 10.0 mi South 23.0 mph 31.1 mph 0.03 in Rain Light Rain
11:59 PM 59.0 °F - 57.2 °F 94% 29.45 in 10.0 mi South 20.7 mph 31.1 mph N/A   Overcast